createdAt,value
2019-02-25T00:03:14.531Z,11.60
2019-02-25T00:08:22.175Z,11.77
2019-02-25T00:13:28.711Z,11.27
2019-02-25T00:18:35.059Z,12.47
2019-02-25T00:23:42.381Z,12.20
2019-02-25T00:28:49.804Z,11.60
2019-02-25T00:33:56.923Z,12.23
2019-02-25T00:39:07.662Z,12.23
2019-02-25T00:44:13.935Z,13.17
2019-02-25T00:49:21.419Z,11.90
2019-02-25T00:54:28.963Z,13.40
2019-02-25T00:59:35.248Z,11.90
2019-02-25T01:04:42.439Z,12.03
2019-02-25T01:09:50.550Z,11.20
2019-02-25T01:14:58.310Z,10.43
2019-02-25T01:20:05.836Z,11.90
2019-02-25T01:25:12.407Z,10.00
2019-02-25T01:30:20.469Z,11.27
2019-02-25T01:35:28.302Z,14.00
2019-02-25T01:40:34.743Z,11.67
2019-02-25T01:45:41.722Z,11.73
2019-02-25T01:50:48.437Z,10.90
2019-02-25T01:55:54.822Z,10.90
2019-02-25T02:01:01.840Z,13.27
2019-02-25T02:06:09.731Z,12.27
2019-02-25T02:11:17.532Z,14.57
2019-02-25T02:16:23.881Z,13.80
2019-02-25T02:21:31.450Z,13.60
2019-02-25T02:26:38.854Z,15.77
2019-02-25T02:31:45.413Z,15.97
2019-02-25T02:36:52.115Z,16.73
2019-02-25T02:42:19.187Z,18.73
2019-02-25T02:47:35.981Z,19.97
2019-02-25T02:52:42.377Z,17.63
2019-02-25T02:57:49.612Z,20.50
2019-02-25T03:02:57.241Z,19.10
2019-02-25T03:08:03.525Z,20.10
2019-02-25T03:13:11.156Z,18.70
2019-02-25T03:18:18.542Z,17.87
2019-02-25T03:23:24.658Z,18.43
2019-02-25T03:28:32.238Z,17.67
2019-02-25T03:33:41.268Z,18.40
2019-02-25T03:38:48.385Z,17.93
2019-02-25T03:43:54.601Z,17.90
2019-02-25T03:49:01.673Z,17.33
2019-02-25T03:54:08.426Z,18.57
2019-02-25T03:59:14.942Z,17.33
2019-02-25T04:04:21.839Z,18.37
2019-02-25T04:09:29.081Z,20.23
2019-02-25T04:14:36.796Z,17.70
2019-02-25T04:19:42.975Z,18.10
2019-02-25T04:24:53.763Z,16.10
2019-02-25T04:30:01.940Z,17.77
2019-02-25T04:35:10.535Z,19.37
2019-02-25T04:40:18.262Z,17.90
2019-02-25T04:45:24.576Z,17.83
2019-02-25T04:50:31.547Z,16.80
2019-02-25T04:55:38.884Z,17.47
2019-02-25T05:00:45.286Z,16.00
2019-02-25T05:05:53.251Z,15.77
2019-02-25T05:11:01.395Z,15.07
2019-02-25T05:16:08.028Z,15.00
2019-02-25T05:21:14.235Z,14.20
2019-02-25T05:26:21.368Z,14.10
2019-02-25T05:31:28.556Z,14.70
2019-02-25T05:36:34.841Z,15.27
2019-02-25T05:41:41.546Z,15.37
2019-02-25T05:46:49.817Z,15.07
2019-02-25T05:51:58.312Z,16.03
2019-02-25T05:57:05.351Z,17.27
2019-02-25T06:02:11.866Z,18.43
2019-02-25T06:07:19.824Z,18.90
2019-02-25T06:12:26.790Z,18.10
2019-02-25T06:17:33.181Z,18.40
2019-02-25T06:22:40.498Z,17.87
2019-02-25T06:27:47.054Z,16.43
2019-02-25T06:32:53.454Z,18.40
2019-02-25T06:38:01.459Z,19.93
2019-02-25T06:43:08.178Z,19.67
2019-02-25T06:48:14.403Z,18.40
2019-02-25T06:53:21.549Z,17.27
2019-02-25T06:58:28.711Z,18.43
2019-02-25T07:03:36.773Z,18.53
2019-02-25T07:09:02.853Z,18.13
2019-02-25T07:14:25.008Z,17.07
2019-02-25T07:19:57.725Z,18.57
2019-02-25T07:25:28.976Z,19.07
2019-02-25T07:31:12.286Z,20.03
2019-02-25T07:36:47.635Z,19.70
2019-02-25T07:42:15.978Z,20.07
2019-02-25T07:47:36.706Z,18.53
2019-02-25T07:52:52.437Z,20.40
2019-02-25T07:58:08.551Z,20.07
2019-02-25T08:03:24.440Z,20.47
2019-02-25T08:08:39.652Z,19.93
2019-02-25T08:14:09.434Z,20.70
2019-02-25T08:19:24.791Z,19.60
2019-02-25T08:24:45.278Z,19.00
2019-02-25T08:30:09.378Z,17.43
2019-02-25T08:36:11.798Z,18.47
2019-02-25T08:41:43.541Z,15.33
2019-02-25T08:47:10.477Z,14.90
2019-02-25T08:52:17.466Z,15.57
2019-02-25T08:57:23.868Z,15.93
2019-02-25T09:02:31.476Z,11.97
2019-02-25T09:07:38.911Z,14.37
2019-02-25T09:12:45.014Z,12.67
2019-02-25T09:17:50.305Z,13.93
2019-02-25T09:22:57.367Z,12.97
2019-02-25T09:28:03.818Z,13.47
2019-02-25T09:33:11.634Z,14.53
2019-02-25T09:38:19.638Z,12.00
2019-02-25T09:43:27.570Z,13.47
2019-02-25T09:48:34.115Z,14.50
2019-02-25T09:53:42.274Z,12.20
2019-02-25T09:58:51.925Z,12.50
2019-02-25T10:03:59.114Z,12.30
2019-02-25T10:09:08.605Z,14.30
2019-02-25T10:14:14.983Z,13.40
2019-02-25T10:19:22.989Z,13.30
2019-02-25T10:24:30.724Z,12.33
2019-02-25T10:29:38.859Z,12.77
2019-02-25T10:34:45.128Z,13.23
2019-02-25T10:39:52.427Z,12.43
2019-02-25T10:45:00.324Z,12.47
2019-02-25T10:50:07.770Z,12.90
2019-02-25T10:55:24.350Z,13.97
2019-02-25T11:00:32.174Z,13.70
2019-02-25T11:05:40.227Z,14.73
2019-02-25T11:10:54.941Z,15.20
2019-02-25T11:16:03.480Z,16.83
2019-02-25T11:21:11.686Z,16.70
2019-02-25T11:26:19.135Z,18.37
2019-02-25T11:31:29.011Z,16.77
2019-02-25T11:36:36.527Z,15.10
2019-02-25T11:41:42.999Z,18.03
2019-02-25T11:46:50.596Z,17.40
2019-02-25T11:51:58.528Z,17.20
2019-02-25T11:57:05.144Z,17.50
2019-02-25T12:02:11.965Z,17.80
2019-02-25T12:07:20.464Z,17.40
2019-02-25T12:12:28.174Z,15.87
2019-02-25T12:17:34.682Z,13.07
2019-02-25T12:22:41.600Z,15.23
2019-02-25T12:27:50.088Z,19.47
2019-02-25T12:32:57.850Z,15.87
2019-02-25T12:38:04.686Z,16.67
2019-02-25T12:43:12.223Z,14.87
2019-02-25T12:48:19.866Z,14.83
2019-02-25T12:53:26.820Z,14.57
2019-02-25T12:58:33.295Z,13.97
2019-02-25T13:03:40.882Z,13.50
2019-02-25T13:08:49.032Z,14.07
2019-02-25T13:13:55.537Z,13.10
2019-02-25T13:19:03.299Z,11.80
2019-02-25T13:24:09.979Z,12.03
2019-02-25T13:29:17.319Z,11.63
2019-02-25T13:34:23.841Z,11.63
2019-02-25T13:39:31.928Z,9.97
2019-02-25T13:44:39.762Z,10.53
2019-02-25T13:49:47.769Z,10.83
2019-02-25T13:54:54.083Z,8.97
2019-02-25T14:00:02.386Z,8.97
2019-02-25T14:05:10.307Z,7.77
2019-02-25T14:10:17.039Z,9.93
2019-02-25T14:15:24.046Z,7.33
2019-02-25T14:20:31.694Z,8.07
2019-02-25T14:25:41.532Z,8.60
2019-02-25T14:30:51.404Z,6.90
2019-02-25T14:35:58.120Z,6.50
2019-02-25T14:41:06.867Z,7.33
2019-02-25T14:46:14.540Z,8.03
2019-02-25T14:51:21.462Z,6.60
2019-02-25T14:56:28.259Z,6.70
2019-02-25T15:01:34.648Z,7.43
2019-02-25T15:06:41.813Z,6.90
2019-02-25T15:11:51.204Z,7.83
2019-02-25T15:16:57.747Z,7.53
2019-02-25T15:22:06.528Z,9.03
2019-02-25T15:27:12.994Z,6.80
2019-02-25T15:32:20.926Z,7.13
2019-02-25T15:37:28.786Z,7.60
2019-02-25T15:42:38.420Z,7.77
2019-02-25T15:47:44.803Z,6.77
2019-02-25T15:52:51.681Z,6.90
2019-02-25T15:57:58.254Z,6.80
2019-02-25T16:03:06.198Z,7.53
2019-02-25T16:08:17.068Z,6.33
2019-02-25T16:13:23.386Z,7.07
2019-02-25T16:18:30.421Z,6.93
2019-02-25T16:23:40.707Z,9.03
2019-02-25T16:28:46.803Z,7.27
2019-02-25T16:33:53.890Z,7.27
2019-02-25T16:39:05.406Z,7.63
2019-02-25T16:44:11.788Z,7.83
2019-02-25T16:49:18.608Z,8.00
2019-02-25T16:54:25.252Z,8.50
2019-02-25T16:59:31.616Z,7.63
2019-02-25T17:04:40.244Z,8.17
2019-02-25T17:09:46.988Z,8.23
2019-02-25T17:14:55.135Z,9.07
2019-02-25T17:20:03.298Z,9.10
2019-02-25T17:25:12.121Z,9.73
2019-02-25T17:30:21.619Z,8.97
2019-02-25T17:35:30.677Z,9.70
2019-02-25T17:40:38.203Z,9.47
2019-02-25T17:45:44.755Z,9.37
2019-02-25T17:50:53.393Z,8.57
2019-02-25T17:56:01.214Z,8.80
2019-02-25T18:01:09.761Z,11.73
2019-02-25T18:06:17.158Z,11.20
2019-02-25T18:11:24.612Z,11.37
2019-02-25T18:16:33.274Z,11.40
2019-02-25T18:21:43.254Z,18.80
2019-02-25T18:26:50.300Z,31.17
2019-02-25T18:31:58.114Z,24.00
2019-02-25T18:37:07.047Z,19.57
2019-02-25T18:42:15.451Z,17.07
2019-02-25T18:47:23.447Z,18.33
2019-02-25T18:52:30.113Z,19.00
2019-02-25T18:57:39.098Z,18.87
2019-02-25T19:02:47.903Z,19.80
2019-02-25T19:07:55.519Z,20.37
2019-02-25T19:13:02.176Z,20.17
2019-02-25T19:18:11.129Z,23.50
2019-02-25T19:23:19.394Z,31.33
2019-02-25T19:28:28.131Z,21.07
2019-02-25T19:33:37.090Z,23.37
2019-02-25T19:38:44.131Z,21.23
2019-02-25T19:43:58.965Z,23.00
2019-02-25T19:49:01.529Z,22.70
2019-02-25T19:54:09.811Z,24.60
2019-02-25T19:59:19.933Z,21.30
2019-02-25T20:04:28.886Z,23.10
2019-02-25T20:09:35.059Z,23.00
2019-02-25T20:14:46.583Z,22.70
2019-02-25T20:19:51.867Z,20.83
2019-02-25T20:24:59.890Z,22.83
2019-02-25T20:30:10.113Z,24.23
2019-02-25T20:35:17.822Z,21.53
2019-02-25T20:40:28.725Z,22.07
2019-02-25T20:45:36.155Z,22.77
2019-02-25T20:50:42.777Z,25.07
2019-02-25T20:55:50.698Z,28.77
2019-02-25T21:00:58.865Z,31.47
2019-02-25T21:06:05.160Z,26.50
2019-02-25T21:11:13.510Z,27.57
2019-02-25T21:16:20.031Z,30.13
2019-02-25T21:21:28.082Z,32.90
2019-02-25T21:26:38.606Z,27.43
2019-02-25T21:31:47.246Z,29.77
2019-02-25T21:36:54.643Z,26.30
2019-02-25T21:42:02.474Z,32.57
2019-02-25T21:47:10.373Z,28.87
2019-02-25T21:52:17.619Z,34.70
2019-02-25T21:57:24.145Z,29.27
2019-02-25T22:02:31.866Z,23.80
2019-02-25T22:07:39.851Z,22.63
2019-02-25T22:12:47.481Z,22.20
2019-02-25T22:17:53.711Z,20.97
2019-02-25T22:23:01.438Z,19.97
2019-02-25T22:28:10.143Z,19.87
2019-02-25T22:33:26.758Z,18.40
2019-02-25T22:38:27.791Z,17.80
2019-02-25T22:43:34.283Z,17.80
2019-02-25T22:48:43.302Z,16.37
2019-02-25T22:53:49.590Z,16.67
2019-02-25T22:58:58.682Z,17.07
2019-02-25T23:04:11.091Z,17.70
2019-02-25T23:09:16.494Z,19.67
2019-02-25T23:14:23.374Z,20.37
2019-02-25T23:19:30.929Z,24.30
2019-02-25T23:24:39.815Z,20.63
2019-02-25T23:29:48.318Z,18.77
2019-02-25T23:34:55.346Z,21.73
2019-02-25T23:40:06.754Z,18.97
2019-02-25T23:45:12.991Z,22.87
2019-02-25T23:50:19.057Z,21.03
2019-02-25T23:55:27.755Z,22.90
